YPPH/PER METAR and TAF weather

Enter ICAO airport designator
Station Type Date Time Source
YPPH METAR 2024/04/17 18:30 UTC NOAA

YPPH 171830Z 06014KT CAVOK 22/06 Q1023


Station Type Date Time Source
YPPH Decoded METAR 2024/04/17 18:30 UTC NOAA

Belmont Perth Airport , Australia (YPPH) 31-56S 115-57E 29M
Apr 17, 2024 - 02:30 PM EDT / 2024.04.17 1830 UTC
Wind: from the ENE (060 degrees) at 16 MPH (14 KT):0
Visibility: greater than 7 mile(s):0
Temperature: 71 F (22 C)
Dew Point: 42 F (6 C)
Relative Humidity: 35%
Pressure (altimeter): 30.21 in. Hg (1023 hPa)
ob: YPPH 171830Z 06014KT CAVOK 22/06 Q1023
cycle: 18

Station Type Date Time Source
YPPH TAF 2024/04/17 18:00 UTC NOAA